Time;durP1;ratioP1;P1;durP2;ratioP2;P2;SDS_P1;SDS_P2;PMS_P1;PMS_P2;Temp;Humidity;BMP_temperature;BMP_pressure;BME280_temperature;BME280_humidity;BME280_pressure;Samples;Min_cycle;Max_cycle;Signal;HPM_P1;HPM_P2
2022/07/23 00:00:51;;;;;;;4.72;3.65;;;25.60;54.80;;;;;;5043991;28;20488;-48
2022/07/23 00:03:17;;;;;;;5.07;3.90;;;25.60;54.80;;;;;;5044479;28;20071;-48
2022/07/23 00:05:42;;;;;;;4.43;4.03;;;25.60;54.80;;;;;;5044612;28;20017;-49
2022/07/23 00:08:08;;;;;;;5.25;3.85;;;25.60;54.80;;;;;;5044156;28;20403;-49
2022/07/23 00:10:33;;;;;;;3.90;3.60;;;25.60;54.80;;;;;;5043960;28;20032;-49
2022/07/23 00:12:59;;;;;;;4.00;3.60;;;25.60;54.80;;;;;;5043885;28;20714;-50
2022/07/23 00:15:24;;;;;;;4.38;3.97;;;25.50;54.70;;;;;;5044415;28;20487;-50
2022/07/23 00:17:50;;;;;;;4.97;3.85;;;25.60;54.80;;;;;;5044104;28;20032;-48
2022/07/23 00:20:16;;;;;;;5.03;4.05;;;25.60;54.70;;;;;;5043398;28;20557;-48
2022/07/23 00:22:48;;;;;;;4.30;3.90;;;25.50;54.70;;;;;;5044187;28;20029;-48
2022/07/23 00:25:14;;;;;;;4.75;4.35;;;25.60;54.80;;;;;;5044087;28;20029;-47
2022/07/23 00:27:39;;;;;;;4.05;3.72;;;25.60;54.80;;;;;;5044006;28;20029;-47
2022/07/23 00:30:05;;;;;;;3.92;3.60;;;25.50;54.70;;;;;;5043932;28;20036;-48
2022/07/23 00:32:31;;;;;;;5.03;3.90;;;25.60;54.70;;;;;;5043532;28;20037;-48
2022/07/23 00:34:56;;;;;;;4.00;3.70;;;25.50;54.60;;;;;;5026486;28;20033;-50
2022/07/23 00:37:22;;;;;;;5.65;3.80;;;25.50;54.60;;;;;;5043854;28;20048;-49
2022/07/23 00:39:47;;;;;;;4.38;3.97;;;25.50;54.60;;;;;;5043630;28;20075;-47
2022/07/23 00:42:13;;;;;;;4.95;4.00;;;25.50;54.60;;;;;;5043701;28;20028;-48
2022/07/23 00:44:38;;;;;;;5.00;3.63;;;25.50;54.60;;;;;;5043726;28;20054;-47
2022/07/23 00:47:05;;;;;;;4.20;3.60;;;25.50;54.60;;;;;;5044232;28;20025;-48
2022/07/23 00:49:31;;;;;;;4.30;3.90;;;25.50;54.50;;;;;;5026099;28;20458;-48
2022/07/23 00:51:56;;;;;;;3.90;3.60;;;25.50;54.60;;;;;;5026408;28;20053;-48
2022/07/23 00:54:23;;;;;;;5.13;4.30;;;25.50;54.60;;;;;;5044029;28;20403;-50
2022/07/23 00:56:49;;;;;;;3.95;3.60;;;25.50;54.70;;;;;;5044351;28;20112;-48
2022/07/23 00:59:14;;;;;;;5.07;3.60;;;25.50;54.70;;;;;;5042705;28;20457;-48
2022/07/23 01:01:40;;;;;;;6.97;4.00;;;25.50;54.80;;;;;;5043801;28;20087;-48
2022/07/23 01:04:05;;;;;;;3.80;3.33;;;25.50;54.80;;;;;;5044368;28;20033;-49
2022/07/23 01:06:34;;;;;;;4.60;4.20;;;25.50;54.80;;;;;;5043944;28;20087;-48
2022/07/23 01:09:00;;;;;;;4.10;3.80;;;25.50;54.90;;;;;;5025271;28;20499;-48
2022/07/23 01:11:26;;;;;;;4.10;3.70;;;25.50;54.90;;;;;;5025852;28;20041;-51
2022/07/23 01:13:51;;;;;;;4.30;3.60;;;25.50;55.00;;;;;;5043499;28;20071;-51
2022/07/23 01:16:17;;;;;;;3.90;3.60;;;25.50;54.90;;;;;;5043734;28;20021;-52
2022/07/23 01:18:42;;;;;;;4.28;3.88;;;25.50;54.90;;;;;;5044162;28;20115;-50
2022/07/23 01:21:09;;;;;;;3.95;3.53;;;25.50;54.90;;;;;;5043900;28;20561;-47
2022/07/23 01:23:34;;;;;;;4.85;3.60;;;25.40;54.90;;;;;;5028966;28;20029;-49
2022/07/23 01:26:00;;;;;;;4.15;3.85;;;25.50;54.90;;;;;;5047471;28;20032;-48
2022/07/23 01:28:25;;;;;;;4.18;3.78;;;25.40;54.90;;;;;;5046623;28;20562;-49
2022/07/23 01:30:51;;;;;;;4.40;4.00;;;25.40;55.00;;;;;;5047190;28;20025;-49
2022/07/23 01:33:16;;;;;;;3.78;3.28;;;25.50;55.00;;;;;;5046908;28;20036;-47
2022/07/23 01:35:42;;;;;;;4.50;4.00;;;25.40;55.00;;;;;;5029813;28;20028;-48
2022/07/23 01:38:07;;;;;;;4.53;3.78;;;25.40;55.00;;;;;;5012522;28;20033;-47
2022/07/23 01:40:33;;;;;;;5.03;4.63;;;25.50;55.10;;;;;;5029173;28;20025;-47
2022/07/23 01:42:58;;;;;;;4.28;3.88;;;25.40;54.80;;;;;;5046653;28;20044;-48
2022/07/23 01:45:24;;;;;;;4.93;4.35;;;25.40;55.00;;;;;;5046334;28;20126;-48
2022/07/23 01:47:49;;;;;;;3.95;3.55;;;25.40;55.10;;;;;;5046991;28;20033;-48
2022/07/23 01:50:15;;;;;;;4.88;3.85;;;25.40;55.10;;;;;;5028666;28;20261;-47
2022/07/23 01:52:40;;;;;;;4.40;4.10;;;25.50;55.20;;;;;;5046435;28;20040;-48
2022/07/23 01:55:06;;;;;;;3.88;3.42;;;25.50;55.30;;;;;;5047464;28;20080;-47
2022/07/23 01:57:32;;;;;;;4.20;3.80;;;25.40;55.20;;;;;;5046388;28;20029;-47
2022/07/23 01:59:58;;;;;;;4.00;3.42;;;25.50;55.20;;;;;;5046516;28;20492;-48
2022/07/23 02:02:23;;;;;;;4.18;3.78;;;25.40;55.20;;;;;;5046266;28;20708;-52
2022/07/23 02:04:49;;;;;;;4.68;4.28;;;25.50;55.30;;;;;;5046790;28;20035;-49
2022/07/23 02:07:14;;;;;;;4.05;3.65;;;25.40;55.30;;;;;;5046236;28;20048;-48
2022/07/23 02:09:40;;;;;;;6.78;3.88;;;25.50;55.30;;;;;;5045987;28;20427;-51
2022/07/23 02:12:05;;;;;;;4.32;3.92;;;25.50;55.30;;;;;;5046516;28;20048;-48
2022/07/23 02:14:31;;;;;;;4.15;3.65;;;25.40;55.20;;;;;;5046618;28;20041;-47
2022/07/23 02:16:56;;;;;;;5.28;4.00;;;25.50;55.30;;;;;;5028901;28;20033;-48
2022/07/23 02:19:22;;;;;;;4.18;3.78;;;25.40;55.30;;;;;;5045531;28;20041;-47
2022/07/23 02:21:48;;;;;;;3.88;3.58;;;25.50;55.30;;;;;;5046388;28;20127;-49
2022/07/23 02:24:13;;;;;;;4.63;3.30;;;25.50;55.40;;;;;;5046359;28;20110;-47
2022/07/23 02:26:39;;;;;;;4.18;3.78;;;25.40;55.30;;;;;;5027793;28;20696;-48
2022/07/23 02:29:04;;;;;;;3.88;3.58;;;25.40;55.30;;;;;;5046068;28;20086;-49
2022/07/23 02:31:30;;;;;;;3.83;3.53;;;25.40;55.40;;;;;;5046193;28;20483;-51
2022/07/23 02:33:56;;;;;;;4.68;3.55;;;25.40;55.50;;;;;;5027918;28;20454;-47
2022/07/23 02:36:21;;;;;;;4.00;3.60;;;25.40;55.50;;;;;;5045967;28;20040;-48
2022/07/23 02:38:47;;;;;;;4.80;3.92;;;25.40;55.50;;;;;;5027435;28;20025;-50
2022/07/23 02:41:12;;;;;;;4.00;3.60;;;25.40;55.50;;;;;;5045702;28;20035;-50
2022/07/23 02:43:38;;;;;;;3.53;3.22;;;25.40;55.60;;;;;;5028386;28;20127;-43
2022/07/23 02:46:03;;;;;;;4.70;4.30;;;25.40;55.60;;;;;;5029451;28;20021;-49
2022/07/23 02:48:29;;;;;;;4.45;3.42;;;25.40;55.60;;;;;;5045600;28;20485;-50
2022/07/23 02:50:56;;;;;;;4.15;3.72;;;25.40;55.60;;;;;;5046322;28;20036;-51
2022/07/23 02:53:22;;;;;;;4.00;3.70;;;25.30;55.50;;;;;;5046139;28;20501;-53
2022/07/23 02:55:47;;;;;;;3.78;3.47;;;25.30;55.50;;;;;;5045982;28;20108;-53
2022/07/23 02:58:13;;;;;;;4.32;3.85;;;25.30;55.60;;;;;;5045753;28;20120;-50
2022/07/23 03:00:38;;;;;;;4.47;3.83;;;25.30;55.60;;;;;;5045725;28;20071;-50
2022/07/23 03:03:04;;;;;;;4.07;3.78;;;25.30;55.60;;;;;;5046362;28;20114;-52
2022/07/23 03:05:29;;;;;;;3.88;3.58;;;25.30;55.60;;;;;;5045712;28;20569;-49
2022/07/23 03:07:55;;;;;;;4.28;3.72;;;25.30;55.60;;;;;;5045819;28;20044;-52
2022/07/23 03:10:20;;;;;;;4.72;3.47;;;25.30;55.60;;;;;;5044657;28;20033;-50
2022/07/23 03:12:46;;;;;;;4.32;3.65;;;25.30;55.60;;;;;;5044449;28;20112;-51
2022/07/23 03:15:11;;;;;;;3.95;3.65;;;25.30;55.60;;;;;;5044746;28;20510;-49
2022/07/23 03:17:37;;;;;;;3.78;3.42;;;25.30;55.70;;;;;;5046003;28;20033;-52
2022/07/23 03:20:02;;;;;;;4.97;3.13;;;25.30;55.70;;;;;;5044681;28;20033;-51
2022/07/23 03:22:28;;;;;;;4.55;3.40;;;25.30;55.70;;;;;;5027449;28;20037;-53
2022/07/23 03:24:53;;;;;;;3.92;3.63;;;25.30;55.70;;;;;;5027576;28;20043;-52
2022/07/23 03:27:20;;;;;;;5.38;3.92;;;25.30;55.70;;;;;;5045279;28;20108;-53
2022/07/23 03:29:45;;;;;;;4.18;3.78;;;25.20;55.70;;;;;;5045027;28;20542;-51
2022/07/23 03:32:11;;;;;;;3.72;3.42;;;25.20;55.70;;;;;;5043742;28;20044;-50
2022/07/23 03:34:36;;;;;;;6.57;3.47;;;25.30;55.80;;;;;;5044986;28;20036;-51
2022/07/23 03:37:02;;;;;;;4.05;3.65;;;25.30;55.80;;;;;;5028101;28;20033;-48
2022/07/23 03:39:27;;;;;;;3.90;3.60;;;25.20;55.80;;;;;;5044093;28;21016;-50
2022/07/23 03:41:53;;;;;;;4.13;3.83;;;25.20;55.80;;;;;;5045002;28;20412;-49
2022/07/23 03:44:18;;;;;;;4.15;3.75;;;25.20;55.90;;;;;;5044493;28;20715;-47
2022/07/23 03:46:44;;;;;;;4.20;3.80;;;25.20;55.90;;;;;;5044292;28;20021;-50
2022/07/23 03:49:09;;;;;;;3.25;3.03;;;25.20;55.90;;;;;;5044168;28;20032;-48
2022/07/23 03:51:35;;;;;;;3.72;3.42;;;25.20;55.90;;;;;;5045076;28;20029;-49
2022/07/23 03:54:00;;;;;;;4.28;3.88;;;25.20;55.90;;;;;;5044061;28;20053;-51
2022/07/23 03:56:26;;;;;;;3.88;3.55;;;25.20;55.90;;;;;;5026548;28;20745;-50
2022/07/23 03:58:51;;;;;;;4.10;3.80;;;25.20;55.90;;;;;;5044111;28;20036;-52
2022/07/23 04:01:17;;;;;;;4.07;3.70;;;25.20;55.90;;;;;;5044104;28;20028;-53
2022/07/23 04:03:42;;;;;;;4.63;3.83;;;25.20;55.90;;;;;;5026866;28;20404;-50
2022/07/23 04:06:08;;;;;;;4.78;4.00;;;25.20;56.00;;;;;;5042484;28;20033;-53
2022/07/23 04:08:33;;;;;;;4.00;3.55;;;25.20;56.00;;;;;;5043756;28;20053;-53
2022/07/23 04:10:59;;;;;;;3.88;3.58;;;25.20;55.90;;;;;;5043986;28;20032;-48
2022/07/23 04:13:24;;;;;;;5.35;3.35;;;25.20;56.00;;;;;;5043956;28;20128;-52
2022/07/23 04:15:50;;;;;;;3.97;3.67;;;25.20;56.00;;;;;;5044238;28;20423;-51
2022/07/23 04:18:21;;;;;;;4.25;3.95;;;25.20;56.00;;;;;;5026473;28;20036;-54
2022/07/23 04:20:47;;;;;;;4.13;3.67;;;25.20;56.10;;;;;;5026159;28;20033;-52
2022/07/23 04:23:12;;;;;;;4.20;3.83;;;25.10;56.10;;;;;;5026175;28;20040;-53
2022/07/23 04:25:38;;;;;;;3.75;3.35;;;25.20;56.10;;;;;;5026799;28;20072;-51
2022/07/23 04:28:03;;;;;;;4.07;3.78;;;25.10;56.10;;;;;;5044024;28;20471;-51
2022/07/23 04:30:29;;;;;;;5.50;4.13;;;25.10;56.10;;;;;;5043567;28;20427;-52
2022/07/23 04:32:54;;;;;;;4.25;3.85;;;25.10;56.10;;;;;;5043826;28;20033;-51
2022/07/23 04:35:20;;;;;;;4.40;4.00;;;25.10;56.70;;;;;;5043543;28;20037;-50
2022/07/23 04:37:45;;;;;;;4.38;4.07;;;25.10;56.10;;;;;;5026292;28;20037;-52
2022/07/23 04:40:12;;;;;;;4.57;4.18;;;25.10;56.10;;;;;;5043566;28;20512;-50
2022/07/23 04:42:37;;;;;;;4.35;3.95;;;25.10;56.20;;;;;;5044462;28;20087;-51
2022/07/23 04:45:03;;;;;;;4.68;4.28;;;25.10;56.20;;;;;;5044190;28;20433;-53
2022/07/23 04:47:29;;;;;;;4.32;3.92;;;25.10;56.20;;;;;;5044098;28;20048;-53
2022/07/23 04:49:54;;;;;;;4.30;4.00;;;25.10;56.20;;;;;;5043059;28;20029;-47
2022/07/23 04:52:20;;;;;;;5.10;4.10;;;25.10;56.20;;;;;;5043419;28;20079;-50
2022/07/23 04:54:45;;;;;;;4.63;4.22;;;25.10;56.30;;;;;;5044386;28;20029;-50
2022/07/23 04:57:11;;;;;;;4.75;4.35;;;25.00;56.40;;;;;;5044241;28;20116;-51
2022/07/23 04:59:36;;;;;;;4.57;4.13;;;25.00;56.30;;;;;;5047796;28;20025;-51
2022/07/23 05:02:02;;;;;;;4.50;4.20;;;25.00;56.40;;;;;;5047684;28;20041;-50
2022/07/23 05:04:27;;;;;;;4.38;3.97;;;25.00;56.40;;;;;;5047714;28;20120;-49
2022/07/23 05:06:53;;;;;;;4.45;4.05;;;25.00;56.40;;;;;;5029587;28;20036;-48
2022/07/23 05:09:18;;;;;;;4.72;4.00;;;25.00;56.30;;;;;;5047286;28;20033;-50
2022/07/23 05:11:44;;;;;;;5.35;4.80;;;25.00;56.30;;;;;;5029669;28;20040;-51
2022/07/23 05:14:12;;;;;;;6.00;5.07;;;24.90;56.40;;;;;;5047881;28;20394;-51
2022/07/23 05:16:38;;;;;;;4.60;4.15;;;24.90;56.50;;;;;;5047795;28;20021;-52
2022/07/23 05:19:03;;;;;;;7.40;4.78;;;24.90;56.50;;;;;;5046834;28;20033;-48
2022/07/23 05:21:28;;;;;;;6.68;5.20;;;24.90;56.30;;;;;;5047240;28;20128;-52
2022/07/23 05:23:54;;;;;;;5.88;5.13;;;24.90;56.30;;;;;;5047882;28;20033;-51
2022/07/23 05:26:19;;;;;;;5.60;5.10;;;24.90;56.30;;;;;;5047536;28;20072;-53
2022/07/23 05:28:45;;;;;;;6.22;5.63;;;25.00;56.30;;;;;;5046755;28;20044;-50
2022/07/23 05:31:10;;;;;;;5.43;4.93;;;24.90;56.20;;;;;;5046236;28;20085;-49
2022/07/23 05:33:36;;;;;;;6.25;4.70;;;25.00;56.30;;;;;;5047542;28;20025;-51
2022/07/23 05:36:02;;;;;;;7.10;4.82;;;25.00;56.20;;;;;;5047359;28;20501;-52
2022/07/23 05:38:28;;;;;;;5.47;4.97;;;25.00;56.00;;;;;;5046758;28;20566;-51
2022/07/23 05:40:53;;;;;;;6.35;5.10;;;24.90;56.10;;;;;;5047232;28;20063;-52
2022/07/23 05:43:19;;;;;;;5.65;5.15;;;24.90;56.20;;;;;;5046886;28;20052;-48
2022/07/23 05:45:44;;;;;;;6.28;5.20;;;25.00;56.20;;;;;;5047194;28;20105;-46
2022/07/23 05:48:10;;;;;;;7.20;5.13;;;24.90;56.10;;;;;;5046655;28;20025;-49
2022/07/23 05:50:35;;;;;;;5.25;4.75;;;24.90;55.70;;;;;;5046713;28;20029;-49
2022/07/23 05:53:01;;;;;;;6.70;4.85;;;24.90;56.20;;;;;;5046917;28;20059;-53
2022/07/23 05:55:28;;;;;;;5.50;4.95;;;24.90;56.30;;;;;;5047189;28;20033;-53
2022/07/23 05:57:57;;;;;;;5.20;4.70;;;24.90;56.10;;;;;;5046849;28;20029;-51
2022/07/23 06:00:23;;;;;;;5.25;4.75;;;24.90;56.00;;;;;;5046413;28;20037;-51
2022/07/23 06:02:49;;;;;;;5.57;4.88;;;24.90;56.00;;;;;;5046305;28;20407;-53
2022/07/23 06:05:14;;;;;;;6.18;4.70;;;24.90;56.30;;;;;;5029041;28;20043;-50
2022/07/23 06:07:40;;;;;;;5.38;4.97;;;24.90;56.30;;;;;;5028911;28;20025;-48
2022/07/23 06:10:06;;;;;;;5.97;5.45;;;24.90;56.20;;;;;;5045643;28;20029;-52
2022/07/23 06:12:31;;;;;;;6.13;5.45;;;24.90;56.10;;;;;;5046385;28;20041;-51
2022/07/23 06:14:57;;;;;;;5.82;5.28;;;24.90;56.10;;;;;;5046514;28;20032;-52
2022/07/23 06:17:22;;;;;;;5.38;4.88;;;24.90;55.70;;;;;;5046034;28;20037;-48
2022/07/23 06:19:48;;;;;;;5.15;4.68;;;24.90;55.90;;;;;;5045957;28;20514;-50
2022/07/23 06:22:13;;;;;;;4.82;4.43;;;24.90;56.10;;;;;;5046088;28;20052;-50
2022/07/23 06:24:39;;;;;;;6.93;5.00;;;24.90;56.00;;;;;;5047125;28;20078;-53
2022/07/23 06:27:04;;;;;;;5.47;4.95;;;24.90;56.00;;;;;;5028665;28;20029;-51
2022/07/23 06:29:30;;;;;;;5.78;5.18;;;24.90;56.00;;;;;;5045661;28;20036;-53
2022/07/23 06:31:55;;;;;;;5.25;4.75;;;24.90;55.90;;;;;;5045928;28;20405;-48
2022/07/23 06:34:21;;;;;;;5.03;4.47;;;24.90;55.90;;;;;;5046289;28;20037;-48
2022/07/23 06:36:46;;;;;;;8.15;5.05;;;24.90;56.00;;;;;;5046264;28;20075;-51
2022/07/23 06:39:12;;;;;;;5.80;4.60;;;24.90;56.10;;;;;;5045496;28;20029;-49
2022/07/23 06:41:37;;;;;;;5.60;5.10;;;24.90;55.90;;;;;;5047085;28;20381;-48
2022/07/23 06:44:03;;;;;;;6.88;5.65;;;24.90;55.90;;;;;;5046370;28;20053;-48
2022/07/23 06:46:28;;;;;;;6.03;5.22;;;24.90;56.10;;;;;;5046653;28;20431;-51
2022/07/23 06:48:54;;;;;;;4.93;4.53;;;24.90;56.10;;;;;;5045644;28;20029;-50
2022/07/23 06:51:19;;;;;;;5.68;4.57;;;24.90;56.00;;;;;;5027687;28;20291;-50
2022/07/23 06:53:45;;;;;;;6.72;4.60;;;24.90;56.00;;;;;;5045930;28;20040;-48
2022/07/23 06:56:10;;;;;;;6.22;5.63;;;24.90;55.90;;;;;;5045997;28;20026;-47
2022/07/23 06:58:36;;;;;;;6.15;5.22;;;24.90;56.00;;;;;;5045894;28;20025;-47
2022/07/23 07:01:01;;;;;;;5.00;4.53;;;24.90;56.00;;;;;;5045464;28;20462;-47
2022/07/23 07:03:27;;;;;;;6.68;4.82;;;24.90;56.00;;;;;;5045490;28;20036;-48
2022/07/23 07:05:53;;;;;;;5.40;4.78;;;24.90;55.90;;;;;;5046031;28;20037;-47
2022/07/23 07:08:18;;;;;;;5.03;4.60;;;24.90;55.90;;;;;;5045607;28;20091;-47
2022/07/23 07:10:44;;;;;;;5.13;4.70;;;24.90;55.90;;;;;;5045181;28;20044;-49
2022/07/23 07:13:09;;;;;;;5.43;4.80;;;24.90;55.90;;;;;;5028221;28;20086;-49
2022/07/23 07:15:35;;;;;;;5.53;4.88;;;24.90;56.00;;;;;;5045052;28;20570;-48
2022/07/23 07:18:00;;;;;;;6.80;5.00;;;24.90;56.10;;;;;;5044926;28;20737;-48
2022/07/23 07:20:26;;;;;;;5.68;4.80;;;24.90;56.10;;;;;;5027069;28;20033;-46
2022/07/23 07:22:51;;;;;;;5.45;4.82;;;24.90;56.10;;;;;;5045394;28;20029;-48
2022/07/23 07:25:17;;;;;;;5.35;4.85;;;24.90;56.00;;;;;;5045011;28;20052;-48
2022/07/23 07:27:43;;;;;;;5.28;4.70;;;24.90;56.00;;;;;;5034766;28;20610;-47
2022/07/23 07:30:11;;;;;;;5.90;5.20;;;24.90;56.10;;;;;;5044444;28;20108;-48
2022/07/23 07:32:37;;;;;;;5.72;4.80;;;24.90;56.10;;;;;;5007820;28;20029;-47
2022/07/23 07:35:04;;;;;;;6.38;4.93;;;24.90;56.20;;;;;;5045110;28;20461;-47
2022/07/23 07:37:29;;;;;;;5.95;5.35;;;24.90;56.20;;;;;;5045463;28;20099;-48
2022/07/23 07:39:55;;;;;;;7.05;5.43;;;24.90;56.30;;;;;;5026570;28;20025;-48
2022/07/23 07:42:20;;;;;;;5.13;4.72;;;24.90;56.30;;;;;;5045157;28;20029;-47
2022/07/23 07:44:46;;;;;;;5.32;4.75;;;24.80;56.10;;;;;;5044810;28;20028;-50
2022/07/23 07:47:11;;;;;;;4.88;4.38;;;24.90;56.10;;;;;;5026947;28;20025;-47
2022/07/23 07:49:37;;;;;;;4.97;4.47;;;24.90;56.10;;;;;;5044682;28;20028;-46
2022/07/23 07:52:03;;;;;;;5.70;5.05;;;24.90;56.20;;;;;;5044856;28;20036;-48
2022/07/23 07:54:28;;;;;;;5.75;4.88;;;24.80;55.70;;;;;;5044409;28;20491;-47
2022/07/23 07:56:54;;;;;;;5.60;4.68;;;24.80;56.10;;;;;;5044918;28;20407;-51
2022/07/23 07:59:19;;;;;;;6.47;4.93;;;24.80;56.10;;;;;;5044140;28;20025;-48
2022/07/23 08:01:45;;;;;;;6.88;5.80;;;24.80;55.70;;;;;;5051895;22;20499;-46
2022/07/23 08:04:10;;;;;;;5.22;4.75;;;24.80;56.10;;;;;;5044184;28;20028;-49
2022/07/23 08:06:36;;;;;;;5.57;4.90;;;24.80;56.00;;;;;;5044841;28;20028;-48
2022/07/23 08:09:01;;;;;;;5.82;4.93;;;24.80;56.10;;;;;;5043896;28;20748;-48
2022/07/23 08:11:27;;;;;;;6.63;4.95;;;24.80;56.10;;;;;;5026941;28;20040;-48
2022/07/23 08:13:52;;;;;;;5.32;4.82;;;24.80;56.20;;;;;;5044548;28;20025;-47
2022/07/23 08:16:18;;;;;;;5.90;5.40;;;24.80;56.20;;;;;;5045332;28;20024;-50
2022/07/23 08:18:43;;;;;;;6.32;5.10;;;24.80;56.20;;;;;;5044200;28;20088;-48
2022/07/23 08:21:09;;;;;;;5.43;4.93;;;24.80;56.30;;;;;;5045021;28;20051;-47
2022/07/23 08:23:34;;;;;;;6.45;4.82;;;24.80;56.40;;;;;;5044690;28;20151;-48
2022/07/23 08:26:00;;;;;;;6.57;5.03;;;24.80;57.00;;;;;;5045150;28;20025;-46
2022/07/23 08:28:26;;;;;;;5.78;5.18;;;24.90;56.40;;;;;;5026533;28;20117;-48
2022/07/23 08:30:52;;;;;;;5.47;4.97;;;24.80;56.40;;;;;;5043829;28;20071;-48
2022/07/23 08:33:18;;;;;;;5.65;5.15;;;24.80;56.40;;;;;;5009373;28;20032;-48
2022/07/23 08:35:46;;;;;;;6.07;5.40;;;24.80;56.40;;;;;;5026649;28;20102;-49
2022/07/23 08:38:12;;;;;;;6.65;5.30;;;24.80;56.30;;;;;;5027298;28;20040;-46
2022/07/23 08:40:40;;;;;;;5.80;5.30;;;24.80;56.30;;;;;;5026542;28;20399;-48
2022/07/23 08:43:07;;;;;;;5.72;5.13;;;24.80;56.30;;;;;;5044578;28;20029;-50
2022/07/23 08:45:37;;;;;;;5.65;5.18;;;24.80;56.30;;;;;;5044188;28;20025;-48
2022/07/23 08:48:03;;;;;;;5.55;5.05;;;24.80;56.30;;;;;;5044348;28;20159;-48
2022/07/23 08:50:29;;;;;;;5.93;5.32;;;24.80;56.40;;;;;;5025834;28;20136;-48
2022/07/23 08:52:56;;;;;;;5.95;5.35;;;24.80;56.50;;;;;;5044379;28;20080;-48
2022/07/23 08:55:22;;;;;;;8.40;5.20;;;24.80;56.60;;;;;;5044031;28;20411;-48
2022/07/23 08:57:48;;;;;;;5.85;5.25;;;24.80;56.50;;;;;;5044111;28;20032;-49
2022/07/23 09:00:14;;;;;;;7.40;5.03;;;24.80;56.60;;;;;;5043191;28;20105;-48
2022/07/23 09:02:40;;;;;;;6.43;5.55;;;24.80;56.80;;;;;;5044481;28;20045;-48
2022/07/23 09:05:06;;;;;;;6.03;5.35;;;24.80;56.80;;;;;;5026822;28;20519;-48
2022/07/23 09:07:32;;;;;;;6.43;5.68;;;24.80;56.80;;;;;;5044380;28;20056;-47
2022/07/23 09:10:08;;;;;;;5.90;5.40;;;24.80;56.70;;;;;;5025709;28;20116;-48
2022/07/23 09:12:34;;;;;;;5.88;5.28;;;24.80;56.60;;;;;;5043350;28;20060;-48
2022/07/23 09:15:04;;;;;;;7.20;5.22;;;24.80;56.50;;;;;;5026012;28;20110;-50
2022/07/23 09:17:29;;;;;;;6.25;5.65;;;24.80;56.40;;;;;;5044135;28;20416;-48
2022/07/23 09:19:55;;;;;;;5.60;5.10;;;24.80;56.40;;;;;;5009119;28;20029;-46
2022/07/23 09:22:22;;;;;;;6.30;5.43;;;24.80;56.80;;;;;;5009286;28;20044;-48
2022/07/23 09:25:07;;;;;;;5.35;4.82;;;24.80;56.50;;;;;;5043868;28;20021;-49
2022/07/23 09:27:58;;;;;;;5.72;5.15;;;24.80;56.60;;;;;;5044019;28;20082;-47
2022/07/23 09:30:25;;;;;;;5.88;5.25;;;24.80;56.40;;;;;;5042899;28;20045;-49
2022/07/23 09:33:10;;;;;;;7.53;5.22;;;24.80;56.50;;;;;;5025951;28;20056;-47
2022/07/23 09:35:50;;;;;;;6.18;5.57;;;24.80;56.40;;;;;;5043694;28;20090;-47
2022/07/23 09:38:16;;;;;;;6.82;5.75;;;24.80;56.70;;;;;;5024202;28;20032;-48
2022/07/23 09:40:42;;;;;;;6.13;5.53;;;24.80;56.70;;;;;;5041907;28;20025;-45
2022/07/23 09:43:07;;;;;;;6.40;5.80;;;24.80;56.70;;;;;;5026284;28;20129;-48
2022/07/23 09:45:33;;;;;;;6.88;5.57;;;24.80;56.70;;;;;;5028194;28;20098;-47
2022/07/23 09:48:14;;;;;;;6.97;5.47;;;24.80;56.70;;;;;;5046943;28;20025;-49
2022/07/23 09:50:41;;;;;;;6.00;5.38;;;24.80;56.80;;;;;;5046619;28;20040;-49
2022/07/23 09:53:06;;;;;;;6.10;5.50;;;24.80;56.80;;;;;;5046963;28;20395;-48
2022/07/23 09:55:41;;;;;;;6.72;5.72;;;24.80;56.80;;;;;;5046694;28;20031;-50
2022/07/23 09:58:11;;;;;;;7.65;5.90;;;24.80;56.80;;;;;;5046666;28;20029;-48
2022/07/23 10:00:37;;;;;;;6.07;5.32;;;24.80;56.80;;;;;;5046243;28;20037;-49
2022/07/23 10:03:02;;;;;;;6.10;5.38;;;24.80;56.80;;;;;;5029033;28;20040;-49
2022/07/23 10:05:29;;;;;;;5.82;5.32;;;24.80;56.70;;;;;;5012679;28;20404;-49
2022/07/23 10:07:54;;;;;;;5.75;5.25;;;24.70;56.40;;;;;;5012720;28;20061;-50
2022/07/23 10:10:21;;;;;;;7.60;6.65;;;24.70;56.80;;;;;;5012053;28;20025;-51
2022/07/23 10:15:12;;;;;;;6.80;6.20;;;24.70;57.60;;;;;;5028481;28;20254;-48
2022/07/23 10:17:37;;;;;;;6.75;6.15;;;24.70;57.40;;;;;;5046932;28;20407;-48
2022/07/23 10:20:03;;;;;;;6.88;6.07;;;24.70;57.50;;;;;;5045452;28;20029;-50
2022/07/23 10:22:36;;;;;;;8.27;5.95;;;24.70;57.40;;;;;;5046360;28;20098;-49
2022/07/23 10:25:08;;;;;;;6.68;5.80;;;24.70;57.40;;;;;;5029685;28;20891;-49
2022/07/23 10:27:54;;;;;;;6.22;5.60;;;24.70;57.40;;;;;;5046254;28;20036;-49
2022/07/23 10:30:49;;;;;;;6.90;6.20;;;24.80;57.40;;;;;;5012622;28;20029;-48
2022/07/23 10:33:30;;;;;;;6.88;5.97;;;24.70;57.40;;;;;;5046467;28;20031;-49
2022/07/23 10:36:14;;;;;;;6.57;5.97;;;24.70;57.30;;;;;;5013790;28;20111;-52
2022/07/23 10:38:43;;;;;;;8.02;5.88;;;24.70;57.30;;;;;;5046015;28;20060;-48
2022/07/23 10:41:09;;;;;;;6.32;5.78;;;24.70;57.30;;;;;;5002197;28;20120;-50
2022/07/23 10:43:34;;;;;;;7.78;6.63;;;24.70;57.30;;;;;;5028756;28;20079;-50
2022/07/23 10:49:25;;;;;;;6.97;6.28;;;24.70;57.50;;;;;;5045146;28;20043;-49
2022/07/23 10:52:19;;;;;;;6.68;6.07;;;24.70;57.50;;;;;;5045626;28;20029;-49
2022/07/23 10:54:52;;;;;;;6.13;5.53;;;24.70;57.60;;;;;;5045302;28;20122;-48
2022/07/23 10:57:24;;;;;;;7.35;5.95;;;24.70;57.70;;;;;;5045658;28;20021;-48
2022/07/23 11:02:30;;;;;;;6.82;6.13;;;24.70;57.90;;;;;;5045420;28;20045;-48
2022/07/23 11:05:09;;;;;;;9.60;6.03;;;24.70;58.00;;;;;;5011203;28;20017;-50
2022/07/23 11:07:35;;;;;;;7.05;6.35;;;24.70;58.10;;;;;;5029728;28;20604;-48
2022/07/23 11:10:01;;;;;;;7.93;6.20;;;24.70;58.20;;;;;;5044606;28;20079;-49
2022/07/23 11:12:30;;;;;;;9.63;6.85;;;24.70;58.50;;;;;;5045259;28;20177;-49
2022/07/23 11:15:09;;;;;;;10.32;6.28;;;24.70;58.60;;;;;;5045554;28;20032;-48
2022/07/23 11:18:02;;;;;;;7.80;6.70;;;24.70;58.80;;;;;;5044976;28;20407;-48
2022/07/23 11:20:27;;;;;;;7.45;6.70;;;24.70;58.90;;;;;;5030171;28;20053;-52
2022/07/23 11:22:55;;;;;;;6.88;6.15;;;24.70;58.80;;;;;;5045344;28;20072;-50
2022/07/23 11:25:21;;;;;;;7.07;6.38;;;24.70;59.50;;;;;;5045051;28;20133;-49
2022/07/23 11:27:46;;;;;;;6.65;5.95;;;24.70;58.80;;;;;;5045146;28;20112;-48
2022/07/23 11:30:27;;;;;;;6.38;5.50;;;24.60;58.40;;;;;;5044872;28;20119;-47
2022/07/23 11:32:53;;;;;;;7.90;6.20;;;24.70;58.80;;;;;;5044851;28;20040;-50
2022/07/23 11:35:20;;;;;;;6.85;6.13;;;24.60;58.70;;;;;;5044975;28;20427;-51
2022/07/23 11:37:46;;;;;;;8.13;6.53;;;24.70;58.80;;;;;;5045190;28;20025;-50
2022/07/23 11:40:12;;;;;;;7.32;6.10;;;24.70;58.90;;;;;;5027363;28;20035;-49
2022/07/23 11:43:03;;;;;;;7.25;6.55;;;24.60;58.90;;;;;;5044249;28;20564;-51
2022/07/23 11:45:42;;;;;;;7.65;6.80;;;24.60;59.00;;;;;;5044897;28;20036;-51
2022/07/23 11:48:23;;;;;;;9.45;6.32;;;24.60;58.80;;;;;;5044220;28;21564;-51
2022/07/23 11:50:50;;;;;;;7.30;6.57;;;24.70;58.90;;;;;;5044119;28;20140;-48
2022/07/23 11:53:26;;;;;;;8.27;6.82;;;24.70;58.70;;;;;;5044267;28;20040;-47
2022/07/23 11:55:52;;;;;;;7.20;6.03;;;24.70;58.90;;;;;;5027002;28;20044;-48
2022/07/23 11:58:18;;;;;;;6.65;6.05;;;24.70;58.70;;;;;;5044236;28;20036;-49
2022/07/23 12:00:43;;;;;;;8.50;6.78;;;24.70;58.80;;;;;;5043158;28;20078;-51
2022/07/23 12:03:09;;;;;;;7.82;6.68;;;24.60;58.80;;;;;;5044938;28;20082;-49
2022/07/23 12:05:35;;;;;;;7.68;6.88;;;24.70;58.80;;;;;;5044192;28;20029;-48
2022/07/23 12:08:02;;;;;;;7.13;6.28;;;24.60;58.40;;;;;;5043424;28;20084;-51
2022/07/23 12:10:28;;;;;;;8.98;7.00;;;24.70;58.60;;;;;;5043941;28;20548;-52
2022/07/23 12:12:55;;;;;;;9.02;6.80;;;24.70;58.40;;;;;;5044429;28;20032;-48
2022/07/23 12:15:31;;;;;;;8.18;6.90;;;24.70;58.60;;;;;;5044625;28;20082;-49
2022/07/23 12:17:56;;;;;;;8.13;7.00;;;24.70;58.40;;;;;;5043974;28;20120;-50
2022/07/23 12:20:27;;;;;;;8.65;6.90;;;24.70;58.30;;;;;;5043782;28;20510;-49
2022/07/23 12:22:57;;;;;;;8.85;7.95;;;24.70;58.40;;;;;;5044279;28;20036;-52
2022/07/23 12:25:26;;;;;;;7.85;7.13;;;24.50;58.70;;;;;;5027315;28;20527;-50
2022/07/23 12:28:02;;;;;;;8.20;6.68;;;24.60;58.40;;;;;;5027175;28;20033;-49
2022/07/23 12:30:30;;;;;;;6.85;6.20;;;24.60;58.50;;;;;;5025174;28;20384;-48
2022/07/23 12:32:56;;;;;;;7.28;6.68;;;24.70;58.50;;;;;;5044202;28;20068;-48
2022/07/23 12:35:22;;;;;;;7.63;6.93;;;24.70;58.50;;;;;;5027065;28;20029;-49
2022/07/23 12:37:52;;;;;;;8.57;7.43;;;24.70;58.40;;;;;;5044759;28;20044;-50
2022/07/23 12:40:29;;;;;;;7.95;7.15;;;24.70;58.60;;;;;;5026544;28;20025;-48
2022/07/23 12:43:02;;;;;;;8.55;7.75;;;24.70;58.70;;;;;;5043837;28;20037;-48
2022/07/23 12:45:40;;;;;;;8.43;7.60;;;24.70;58.40;;;;;;5026533;28;20079;-48
2022/07/23 12:48:06;;;;;;;8.07;7.28;;;24.60;58.90;;;;;;5044308;28;20543;-49
2022/07/23 12:50:41;;;;;;;10.45;7.72;;;24.70;58.80;;;;;;5044139;28;20041;-46
2022/07/23 12:53:14;;;;;;;8.20;7.40;;;24.70;58.50;;;;;;5044432;28;20029;-49